Terminal Aerodrome Forecast
Issued by NWS

Home | Current Version | Previous Version | Text Only | Print | Product List | Glossary On
Versions: 1 2 3 4 5 6 7 8 9 10 11 12 13 14 15 16 17 18 19 20
000
FTUS44 KHGX 261720
TAFSGR
TAF
KSGR 261720Z 2618/2718 14014G24KT P6SM SCT035 BKN080
     FM262000 14014KT P6SM BKN035
     FM270200 14009KT P6SM BKN025
     FM270800 16007KT P6SM OVC015
     FM271500 18010KT P6SM SCT015 BKN025=

USA.gov is the U.S. government's official web portal to all federal, state and local government web resources and services.